createdAt,value
2017-07-30T00:00:55.670Z,20.33
2017-07-30T00:02:00.598Z,20.42
2017-07-30T00:03:05.257Z,20.40
2017-07-30T00:04:10.194Z,20.38
2017-07-30T00:05:15.120Z,20.39
2017-07-30T00:06:20.047Z,20.36
2017-07-30T00:07:29.007Z,20.36
2017-07-30T00:08:33.969Z,20.34
2017-07-30T00:09:38.905Z,20.38
2017-07-30T00:10:43.901Z,20.32
2017-07-30T00:11:48.864Z,20.27
2017-07-30T00:12:53.782Z,20.20
2017-07-30T00:13:58.759Z,20.26
2017-07-30T00:15:03.690Z,20.31
2017-07-30T00:16:09.549Z,20.33
2017-07-30T00:17:14.477Z,20.34
2017-07-30T00:18:19.402Z,20.36
2017-07-30T00:19:24.350Z,20.38
2017-07-30T00:20:29.287Z,20.45
2017-07-30T00:21:34.202Z,20.32
2017-07-30T00:22:39.145Z,20.33
2017-07-30T00:23:44.080Z,20.28
2017-07-30T00:24:49.947Z,20.19
2017-07-30T00:25:54.873Z,20.16
2017-07-30T00:26:59.803Z,20.10
2017-07-30T00:28:04.003Z,20.17
2017-07-30T00:29:08.921Z,20.20
2017-07-30T00:30:13.965Z,20.26
2017-07-30T00:31:18.885Z,20.23
2017-07-30T00:32:23.816Z,20.30
2017-07-30T00:33:28.745Z,20.31
2017-07-30T00:34:33.659Z,20.33
2017-07-30T00:35:37.902Z,20.42
2017-07-30T00:36:42.836Z,20.41
2017-07-30T00:37:47.762Z,20.38
2017-07-30T00:38:52.684Z,20.30
2017-07-30T00:39:57.598Z,20.25
2017-07-30T00:41:02.554Z,20.20
2017-07-30T00:42:07.468Z,20.17
2017-07-30T00:43:12.483Z,20.22
2017-07-30T00:44:18.301Z,20.16
2017-07-30T00:45:23.226Z,20.11
2017-07-30T00:46:28.166Z,20.11
2017-07-30T00:47:33.092Z,20.22
2017-07-30T00:48:38.026Z,20.31
2017-07-30T00:49:42.952Z,20.40
2017-07-30T00:50:47.875Z,20.43
2017-07-30T00:51:52.809Z,20.38
2017-07-30T00:52:57.739Z,20.39
2017-07-30T00:54:02.663Z,20.40
2017-07-30T00:55:07.587Z,20.42
2017-07-30T00:56:12.582Z,20.36
2017-07-30T00:57:17.539Z,20.37
2017-07-30T00:58:22.462Z,20.28
2017-07-30T00:59:27.379Z,20.19
2017-07-30T01:00:32.305Z,20.11
2017-07-30T01:01:37.225Z,20.08
2017-07-30T01:02:42.174Z,20.02
2017-07-30T01:03:47.103Z,20.06
2017-07-30T01:04:52.009Z,20.06
2017-07-30T01:05:56.921Z,20.03
2017-07-30T01:07:01.866Z,20.05
2017-07-30T01:08:06.822Z,20.09
2017-07-30T01:09:11.789Z,20.20
2017-07-30T01:10:16.794Z,20.18
2017-07-30T01:11:21.730Z,20.17
2017-07-30T01:12:26.646Z,20.20
2017-07-30T01:13:32.499Z,20.29
2017-07-30T01:14:37.441Z,20.26
2017-07-30T01:15:42.365Z,20.22
2017-07-30T01:16:47.291Z,20.14
2017-07-30T01:17:52.209Z,20.17
2017-07-30T01:18:57.154Z,20.19
2017-07-30T01:20:01.725Z,20.11
2017-07-30T01:21:06.640Z,20.13
2017-07-30T01:22:11.552Z,20.11
2017-07-30T01:23:16.469Z,20.07
2017-07-30T01:24:21.437Z,19.99
2017-07-30T01:25:25.986Z,19.98
2017-07-30T01:26:30.914Z,19.98
2017-07-30T01:27:35.838Z,19.99
2017-07-30T01:28:40.789Z,19.92
2017-07-30T01:29:45.739Z,19.90
2017-07-30T01:30:50.672Z,19.91
2017-07-30T01:31:55.599Z,19.89
2017-07-30T01:33:00.524Z,19.92
2017-07-30T01:34:05.457Z,19.86
2017-07-30T01:35:10.417Z,19.83
2017-07-30T01:36:15.333Z,19.90
2017-07-30T01:37:19.930Z,19.85
2017-07-30T01:38:24.854Z,19.80
2017-07-30T01:39:29.402Z,19.76
2017-07-30T01:40:34.362Z,19.73
2017-07-30T01:41:39.284Z,19.75
2017-07-30T01:42:44.245Z,19.75
2017-07-30T01:43:49.169Z,19.77
2017-07-30T01:44:54.078Z,19.76
2017-07-30T01:45:59.032Z,19.77
2017-07-30T01:47:03.959Z,19.79
2017-07-30T01:48:08.870Z,19.90
2017-07-30T01:49:13.453Z,19.89
2017-07-30T01:50:17.722Z,19.86
2017-07-30T01:51:22.302Z,19.89
2017-07-30T01:52:26.843Z,19.96
2017-07-30T01:53:32.663Z,19.91
2017-07-30T01:54:38.101Z,19.88
2017-07-30T01:55:43.033Z,19.83
2017-07-30T01:56:47.985Z,19.68
2017-07-30T01:57:52.891Z,19.56
2017-07-30T01:58:57.810Z,19.57
2017-07-30T02:00:02.374Z,19.55
2017-07-30T02:01:06.942Z,19.49
2017-07-30T02:02:14.204Z,19.57
2017-07-30T02:03:19.458Z,19.53
2017-07-30T02:04:24.391Z,19.52
2017-07-30T02:05:29.313Z,19.55
2017-07-30T02:06:34.230Z,19.52
2017-07-30T02:07:39.179Z,19.56
2017-07-30T02:08:44.098Z,19.57
2017-07-30T02:09:49.036Z,19.54
2017-07-30T02:10:53.953Z,19.56
2017-07-30T02:11:58.866Z,19.61
2017-07-30T02:13:03.828Z,19.58
2017-07-30T02:14:08.775Z,19.58
2017-07-30T02:15:13.703Z,19.57
2017-07-30T02:16:18.696Z,19.48
2017-07-30T02:17:23.613Z,19.33
2017-07-30T02:18:28.557Z,19.34
2017-07-30T02:19:33.473Z,19.25
2017-07-30T02:20:38.030Z,19.28
2017-07-30T02:21:42.608Z,19.32
2017-07-30T02:22:47.534Z,19.32
2017-07-30T02:23:52.509Z,19.31
2017-07-30T02:24:57.429Z,19.25
2017-07-30T02:26:02.350Z,19.21
2017-07-30T02:27:07.316Z,19.15
2017-07-30T02:28:12.246Z,19.26
2017-07-30T02:29:17.185Z,19.28
2017-07-30T02:30:21.724Z,19.22
2017-07-30T02:31:26.651Z,19.22
2017-07-30T02:32:31.566Z,19.21
2017-07-30T02:33:36.486Z,19.18
2017-07-30T02:34:41.431Z,19.14
2017-07-30T02:35:46.354Z,19.19
2017-07-30T02:36:51.279Z,19.12
2017-07-30T02:37:56.201Z,19.05
2017-07-30T02:39:01.129Z,19.04
2017-07-30T02:40:06.089Z,19.01
2017-07-30T02:41:11.020Z,18.96
2017-07-30T02:42:15.939Z,18.97
2017-07-30T02:43:20.882Z,18.99
2017-07-30T02:44:31.138Z,18.91
2017-07-30T02:45:36.075Z,18.96
2017-07-30T02:46:40.977Z,18.89
2017-07-30T02:47:45.893Z,18.89
2017-07-30T02:48:50.818Z,18.89
2017-07-30T02:49:58.758Z,18.93
2017-07-30T02:51:03.747Z,18.93
2017-07-30T02:52:08.674Z,18.88
2017-07-30T02:53:13.581Z,18.86
2017-07-30T02:54:18.586Z,18.87
2017-07-30T02:55:23.510Z,18.83
2017-07-30T02:56:28.470Z,18.79
2017-07-30T02:57:33.381Z,18.81
2017-07-30T02:58:38.297Z,18.77
2017-07-30T02:59:43.233Z,18.75
2017-07-30T03:00:48.165Z,18.69
2017-07-30T03:01:53.121Z,18.71
2017-07-30T03:02:58.949Z,18.80
2017-07-30T03:04:03.863Z,18.76
2017-07-30T03:05:08.780Z,18.78
2017-07-30T03:06:13.713Z,18.82
2017-07-30T03:07:18.798Z,18.77
2017-07-30T03:08:23.719Z,18.77
2017-07-30T03:09:28.642Z,18.80
2017-07-30T03:10:33.641Z,18.88
2017-07-30T03:11:38.556Z,18.86
2017-07-30T03:12:43.493Z,18.88
2017-07-30T03:13:48.406Z,18.86
2017-07-30T03:14:53.341Z,18.91
2017-07-30T03:15:58.253Z,18.94
2017-07-30T03:17:03.184Z,18.88
2017-07-30T03:18:08.153Z,18.86
2017-07-30T03:19:13.070Z,18.81
2017-07-30T03:20:18.053Z,18.78
2017-07-30T03:21:22.987Z,18.69
2017-07-30T03:22:27.901Z,18.61
2017-07-30T03:23:32.853Z,18.59
2017-07-30T03:24:38.694Z,18.65
2017-07-30T03:25:43.604Z,18.55
2017-07-30T03:26:48.536Z,18.54
2017-07-30T03:27:56.263Z,18.57
2017-07-30T03:29:01.227Z,18.54
2017-07-30T03:30:06.160Z,18.59
2017-07-30T03:31:11.094Z,18.55
2017-07-30T03:32:16.016Z,18.52
2017-07-30T03:33:20.930Z,18.55
2017-07-30T03:34:25.921Z,18.59
2017-07-30T03:35:30.843Z,18.60
2017-07-30T03:36:35.780Z,18.57
2017-07-30T03:37:40.696Z,18.48
2017-07-30T03:38:45.626Z,18.45
2017-07-30T03:39:50.574Z,18.44
2017-07-30T03:40:55.502Z,18.44
2017-07-30T03:42:00.414Z,18.49
2017-07-30T03:43:05.324Z,18.54
2017-07-30T03:44:10.245Z,18.57
2017-07-30T03:45:15.201Z,18.58
2017-07-30T03:46:20.113Z,18.59
2017-07-30T03:47:25.033Z,18.56
2017-07-30T03:48:29.602Z,18.57
2017-07-30T03:49:34.529Z,18.57
2017-07-30T03:50:39.462Z,18.57
2017-07-30T03:51:44.396Z,18.53
2017-07-30T03:52:49.323Z,18.59
2017-07-30T03:53:54.263Z,18.69
2017-07-30T03:54:59.173Z,18.67
2017-07-30T03:56:04.131Z,18.72
2017-07-30T03:57:09.059Z,18.75
2017-07-30T03:58:13.979Z,18.67
2017-07-30T03:59:18.977Z,18.65
2017-07-30T04:00:23.897Z,18.67
2017-07-30T04:01:28.857Z,18.62
2017-07-30T04:02:33.774Z,18.69
2017-07-30T04:03:38.698Z,18.69
2017-07-30T04:04:43.609Z,18.66
2017-07-30T04:05:48.541Z,18.65
2017-07-30T04:06:59.544Z,18.67
2017-07-30T04:08:04.453Z,18.68
2017-07-30T04:09:09.022Z,18.68
2017-07-30T04:10:14.021Z,18.70
2017-07-30T04:11:19.012Z,18.80
2017-07-30T04:12:23.958Z,18.79
2017-07-30T04:13:28.873Z,18.78
2017-07-30T04:14:33.801Z,18.84
2017-07-30T04:15:38.753Z,18.80
2017-07-30T04:16:43.683Z,18.81
2017-07-30T04:17:48.639Z,18.86
2017-07-30T04:18:53.550Z,18.81
2017-07-30T04:19:59.977Z,18.79
2017-07-30T04:21:04.920Z,18.93
2017-07-30T04:22:09.834Z,18.97
2017-07-30T04:23:14.818Z,18.94
2017-07-30T04:24:19.758Z,18.86
2017-07-30T04:25:24.684Z,18.83
2017-07-30T04:26:29.598Z,18.85
2017-07-30T04:27:34.529Z,18.95
2017-07-30T04:28:39.499Z,18.98
2017-07-30T04:29:44.413Z,19.03
2017-07-30T04:30:49.351Z,19.12
2017-07-30T04:31:54.320Z,19.19
2017-07-30T04:32:59.240Z,19.16
2017-07-30T04:34:04.210Z,19.18
2017-07-30T04:35:09.133Z,19.18
2017-07-30T04:36:14.058Z,19.13
2017-07-30T04:37:19.061Z,19.12
2017-07-30T04:38:23.995Z,19.14
2017-07-30T04:39:28.962Z,19.11
2017-07-30T04:40:34.773Z,19.22
2017-07-30T04:41:39.677Z,19.30
2017-07-30T04:42:44.602Z,19.29
2017-07-30T04:43:49.509Z,19.34
2017-07-30T04:44:55.855Z,19.43
2017-07-30T04:46:03.586Z,19.49
2017-07-30T04:47:08.505Z,19.54
2017-07-30T04:48:13.418Z,19.55
2017-07-30T04:49:18.414Z,19.56
2017-07-30T04:50:23.379Z,19.62
2017-07-30T04:51:28.292Z,19.66
2017-07-30T04:52:33.202Z,19.77
2017-07-30T04:53:38.114Z,19.86
2017-07-30T04:54:43.035Z,19.88
2017-07-30T04:55:48.010Z,19.93
2017-07-30T04:56:52.951Z,19.85
2017-07-30T04:57:57.873Z,19.96
2017-07-30T04:59:02.784Z,20.08
2017-07-30T05:00:07.693Z,20.02
2017-07-30T05:01:12.654Z,19.98
2017-07-30T05:02:17.563Z,20.03
2017-07-30T05:03:23.377Z,20.00
2017-07-30T05:04:28.298Z,20.11
2017-07-30T05:05:33.206Z,20.18
2017-07-30T05:06:38.150Z,20.25
2017-07-30T05:07:43.074Z,20.26
2017-07-30T05:08:48.002Z,20.17
2017-07-30T05:09:52.925Z,20.16
2017-07-30T05:10:57.858Z,20.07
2017-07-30T05:12:02.812Z,20.14
2017-07-30T05:13:08.025Z,20.22
2017-07-30T05:14:12.938Z,20.31
2017-07-30T05:15:17.861Z,20.32
2017-07-30T05:16:22.764Z,20.41
2017-07-30T05:17:27.730Z,20.47
2017-07-30T05:18:32.655Z,20.45
2017-07-30T05:19:37.585Z,20.49
2017-07-30T05:20:42.598Z,20.33
2017-07-30T05:21:47.527Z,20.40
2017-07-30T05:22:52.499Z,20.44
2017-07-30T05:23:58.351Z,20.50
2017-07-30T05:25:03.265Z,20.56
2017-07-30T05:26:08.173Z,20.43
2017-07-30T05:27:13.096Z,20.45
2017-07-30T05:28:18.066Z,20.56
2017-07-30T05:29:22.990Z,20.55
2017-07-30T05:30:27.928Z,20.56
2017-07-30T05:31:32.840Z,20.68
2017-07-30T05:32:37.759Z,20.73
2017-07-30T05:33:42.706Z,20.68
2017-07-30T05:34:47.651Z,20.74
2017-07-30T05:35:52.588Z,20.81
2017-07-30T05:36:57.499Z,20.75
2017-07-30T05:38:02.226Z,20.81
2017-07-30T05:39:07.182Z,20.82
2017-07-30T05:40:12.106Z,20.90
2017-07-30T05:41:17.021Z,20.95
2017-07-30T05:42:22.012Z,20.97
2017-07-30T05:43:26.929Z,20.82
2017-07-30T05:44:31.896Z,20.81
2017-07-30T05:45:36.804Z,20.93
2017-07-30T05:46:41.713Z,20.93
2017-07-30T05:47:46.614Z,20.81
2017-07-30T05:48:51.538Z,20.83
2017-07-30T05:49:57.420Z,20.85
2017-07-30T05:51:02.331Z,20.95
2017-07-30T05:52:07.245Z,21.08
2017-07-30T05:53:13.066Z,20.97
2017-07-30T05:54:17.969Z,21.07
2017-07-30T05:55:29.003Z,21.16
2017-07-30T05:56:33.916Z,21.22
2017-07-30T05:57:38.830Z,21.11
2017-07-30T05:58:43.747Z,21.22
2017-07-30T05:59:48.661Z,21.12
2017-07-30T06:00:53.595Z,21.19
2017-07-30T06:01:58.531Z,21.17
2017-07-30T06:03:03.074Z,21.23
2017-07-30T06:04:07.998Z,21.32
2017-07-30T06:05:12.908Z,21.22
2017-07-30T06:06:17.882Z,21.19
2017-07-30T06:07:22.894Z,21.29
2017-07-30T06:08:27.944Z,21.32
2017-07-30T06:09:32.861Z,21.38
2017-07-30T06:10:37.809Z,21.48
2017-07-30T06:11:42.773Z,21.52
2017-07-30T06:12:47.677Z,21.59
2017-07-30T06:13:52.594Z,21.61
2017-07-30T06:14:57.523Z,21.70
2017-07-30T06:16:02.462Z,21.65
2017-07-30T06:17:07.417Z,21.70
2017-07-30T06:18:12.321Z,21.75
2017-07-30T06:19:17.389Z,21.71
2017-07-30T06:20:22.346Z,21.79
2017-07-30T06:21:28.082Z,21.83
2017-07-30T06:22:33.031Z,21.95
2017-07-30T06:23:38.002Z,21.86
2017-07-30T06:24:42.917Z,21.76
2017-07-30T06:25:47.847Z,21.76
2017-07-30T06:26:52.785Z,21.77
2017-07-30T06:27:57.726Z,21.81
2017-07-30T06:29:02.682Z,21.89
2017-07-30T06:30:07.234Z,21.98
2017-07-30T06:31:12.162Z,21.99
2017-07-30T06:32:17.074Z,22.01
2017-07-30T06:33:25.178Z,22.07
2017-07-30T06:34:30.095Z,22.14
2017-07-30T06:35:35.047Z,22.17
2017-07-30T06:36:39.999Z,22.19
2017-07-30T06:37:44.908Z,22.24
2017-07-30T06:38:49.867Z,22.34
2017-07-30T06:39:54.775Z,22.39
2017-07-30T06:40:59.702Z,22.46
2017-07-30T06:42:04.612Z,22.55
2017-07-30T06:43:09.505Z,22.61
2017-07-30T06:44:14.471Z,22.67
2017-07-30T06:45:19.384Z,22.72
2017-07-30T06:46:24.368Z,22.76
2017-07-30T06:47:29.278Z,22.67
2017-07-30T06:48:34.201Z,22.62
2017-07-30T06:49:39.161Z,22.69
2017-07-30T06:50:44.988Z,22.77
2017-07-30T06:51:49.915Z,22.84
2017-07-30T06:52:54.853Z,22.94
2017-07-30T06:53:59.781Z,23.00
2017-07-30T06:55:04.746Z,23.00
2017-07-30T06:56:09.668Z,22.97
2017-07-30T06:57:14.594Z,23.07
2017-07-30T06:58:19.511Z,23.19
2017-07-30T06:59:24.522Z,23.24
2017-07-30T07:00:29.460Z,23.33
2017-07-30T07:01:34.625Z,23.38
2017-07-30T07:02:39.579Z,23.45
2017-07-30T07:03:45.226Z,23.59
2017-07-30T07:04:50.151Z,23.60
2017-07-30T07:05:55.157Z,23.73
2017-07-30T07:07:00.105Z,23.85
2017-07-30T07:08:05.018Z,23.93
2017-07-30T07:09:09.947Z,23.99
2017-07-30T07:10:14.866Z,24.11
2017-07-30T07:11:19.830Z,24.18
2017-07-30T07:12:24.738Z,24.20
2017-07-30T07:13:29.778Z,24.24
2017-07-30T07:14:34.700Z,24.29
2017-07-30T07:15:39.645Z,24.42
2017-07-30T07:16:44.649Z,24.52
2017-07-30T07:17:49.592Z,24.41
2017-07-30T07:18:54.539Z,24.51
2017-07-30T07:20:01.853Z,24.67
2017-07-30T07:21:06.791Z,24.83
2017-07-30T07:22:11.757Z,24.99
2017-07-30T07:23:16.677Z,25.13
2017-07-30T07:24:21.607Z,25.25
2017-07-30T07:25:26.561Z,25.33
2017-07-30T07:26:31.506Z,25.47
2017-07-30T07:27:36.455Z,25.61
2017-07-30T07:28:41.374Z,25.67
2017-07-30T07:29:46.342Z,25.66
2017-07-30T07:30:51.262Z,25.76
2017-07-30T07:31:56.181Z,25.83
2017-07-30T07:33:01.142Z,25.86
2017-07-30T07:34:06.070Z,25.94
2017-07-30T07:35:11.008Z,26.05
2017-07-30T07:36:15.919Z,26.08
2017-07-30T07:37:20.839Z,26.18
2017-07-30T07:38:25.801Z,26.20
2017-07-30T07:39:30.733Z,26.26
2017-07-30T07:40:35.666Z,26.29
2017-07-30T07:41:40.571Z,26.38
2017-07-30T07:42:45.493Z,26.49
2017-07-30T07:43:50.460Z,26.52
2017-07-30T07:44:55.385Z,26.62
2017-07-30T07:46:00.316Z,26.66
2017-07-30T07:47:05.284Z,26.65
2017-07-30T07:48:10.206Z,26.77
2017-07-30T07:49:15.171Z,26.83
2017-07-30T07:50:20.129Z,26.74
2017-07-30T07:51:24.780Z,26.64
2017-07-30T07:52:29.491Z,26.39
2017-07-30T07:53:34.435Z,26.28
2017-07-30T07:54:39.370Z,26.29
2017-07-30T07:55:44.036Z,26.24
2017-07-30T07:56:48.970Z,26.25
2017-07-30T07:57:53.911Z,26.37
2017-07-30T07:58:58.549Z,26.49
2017-07-30T08:00:03.327Z,26.66
2017-07-30T08:01:08.249Z,26.82
2017-07-30T08:02:13.169Z,26.93
2017-07-30T08:03:17.477Z,27.04
2017-07-30T08:04:22.410Z,27.12
2017-07-30T08:05:27.385Z,27.16
2017-07-30T08:06:32.304Z,27.29
2017-07-30T08:07:37.282Z,27.34
2017-07-30T08:08:41.921Z,27.43
2017-07-30T08:09:46.894Z,27.54
2017-07-30T08:10:52.008Z,27.62
2017-07-30T08:11:56.931Z,27.74
2017-07-30T08:13:03.003Z,27.73
2017-07-30T08:14:07.638Z,27.64
2017-07-30T08:15:12.273Z,27.83
2017-07-30T08:16:16.990Z,27.83
2017-07-30T08:17:21.614Z,27.89
2017-07-30T08:18:26.261Z,27.98
2017-07-30T08:19:30.900Z,28.00
2017-07-30T08:20:35.533Z,28.03
2017-07-30T08:21:40.498Z,28.06
2017-07-30T08:22:45.142Z,28.15
2017-07-30T08:23:50.906Z,28.16
2017-07-30T08:24:55.884Z,28.18
2017-07-30T08:26:00.518Z,28.15
2017-07-30T08:27:05.195Z,28.13
2017-07-30T08:28:09.832Z,28.05
2017-07-30T08:29:14.466Z,28.02
2017-07-30T08:30:19.104Z,27.97
2017-07-30T08:31:23.738Z,27.98
2017-07-30T08:32:29.214Z,28.07
2017-07-30T08:33:33.849Z,28.13
2017-07-30T08:34:38.487Z,28.18
2017-07-30T08:35:43.114Z,28.21
2017-07-30T08:36:47.741Z,28.27
2017-07-30T08:37:52.410Z,28.32
2017-07-30T08:38:57.048Z,28.46
2017-07-30T08:40:01.673Z,28.45
2017-07-30T08:41:06.302Z,28.48
2017-07-30T08:42:10.931Z,28.41
2017-07-30T08:43:15.599Z,28.39
2017-07-30T08:44:20.221Z,28.14
2017-07-30T08:45:24.848Z,28.08
2017-07-30T08:46:30.688Z,28.08
2017-07-30T08:47:35.336Z,28.11
2017-07-30T08:48:40.017Z,28.11
2017-07-30T08:49:44.674Z,28.01
2017-07-30T08:50:49.298Z,28.04
2017-07-30T08:51:53.923Z,28.14
2017-07-30T08:52:58.571Z,28.18
2017-07-30T08:54:03.219Z,28.25
2017-07-30T08:55:07.866Z,28.19
2017-07-30T08:56:12.516Z,28.20
2017-07-30T08:57:17.163Z,28.20
2017-07-30T08:58:21.782Z,28.14
2017-07-30T08:59:26.440Z,28.12
2017-07-30T09:00:31.170Z,28.13
2017-07-30T09:01:35.806Z,28.09
2017-07-30T09:02:40.433Z,28.05
2017-07-30T09:03:45.063Z,28.09
2017-07-30T09:04:49.741Z,28.09
2017-07-30T09:05:54.375Z,28.13
2017-07-30T09:07:00.412Z,28.01
2017-07-30T09:08:06.907Z,27.90
2017-07-30T09:09:11.591Z,27.90
2017-07-30T09:10:16.265Z,27.89
2017-07-30T09:11:20.909Z,27.95
2017-07-30T09:12:25.202Z,28.00
2017-07-30T09:13:29.913Z,27.96
2017-07-30T09:14:34.582Z,28.03
2017-07-30T09:15:39.445Z,28.10
2017-07-30T09:16:44.118Z,28.17
2017-07-30T09:17:48.742Z,28.27
2017-07-30T09:18:53.376Z,28.25
2017-07-30T09:19:58.030Z,28.33
2017-07-30T09:21:02.703Z,28.35
2017-07-30T09:22:07.390Z,28.40
2017-07-30T09:23:12.325Z,28.48
2017-07-30T09:24:16.972Z,28.40
2017-07-30T09:25:22.340Z,28.06
2017-07-30T09:26:27.252Z,28.20
2017-07-30T09:27:31.950Z,28.27
2017-07-30T09:28:36.634Z,28.34
2017-07-30T09:29:41.301Z,28.45
2017-07-30T09:30:45.943Z,28.54
2017-07-30T09:31:50.650Z,28.59
2017-07-30T09:32:55.322Z,28.72
2017-07-30T09:33:59.980Z,28.72
2017-07-30T09:35:04.635Z,28.87
2017-07-30T09:36:09.261Z,29.00
2017-07-30T09:37:13.922Z,28.90
2017-07-30T09:38:18.569Z,28.97
2017-07-30T09:39:22.849Z,29.03
2017-07-30T09:40:27.549Z,29.14
2017-07-30T09:41:32.180Z,29.31
2017-07-30T09:42:36.845Z,29.32
2017-07-30T09:43:41.469Z,29.38
2017-07-30T09:44:46.103Z,29.53
2017-07-30T09:45:50.732Z,29.36
2017-07-30T09:46:55.358Z,29.41
2017-07-30T09:48:00.036Z,29.46
2017-07-30T09:49:04.675Z,29.46
2017-07-30T09:50:09.313Z,29.56
2017-07-30T09:51:13.936Z,29.60
2017-07-30T09:52:18.569Z,29.62
2017-07-30T09:53:23.222Z,29.60
2017-07-30T09:54:33.870Z,29.61
2017-07-30T09:55:38.512Z,29.74
2017-07-30T09:56:42.817Z,29.68
2017-07-30T09:57:47.774Z,29.76
2017-07-30T09:58:52.437Z,29.83
2017-07-30T09:59:57.082Z,29.87
2017-07-30T10:01:01.789Z,29.88
2017-07-30T10:02:06.443Z,29.89
2017-07-30T10:03:11.075Z,29.94
2017-07-30T10:04:15.788Z,29.98
2017-07-30T10:05:20.418Z,30.01
2017-07-30T10:06:25.038Z,29.90
2017-07-30T10:07:29.665Z,30.04
2017-07-30T10:08:34.293Z,29.89
2017-07-30T10:09:39.057Z,29.88
2017-07-30T10:10:43.684Z,29.90
2017-07-30T10:11:48.310Z,29.91
2017-07-30T10:12:52.958Z,29.95
2017-07-30T10:14:01.530Z,30.04
2017-07-30T10:15:06.223Z,30.02
2017-07-30T10:16:10.859Z,30.07
2017-07-30T10:17:15.504Z,30.08
2017-07-30T10:18:20.134Z,30.05
2017-07-30T10:19:24.783Z,29.79
2017-07-30T10:20:29.434Z,29.77
2017-07-30T10:21:34.078Z,29.72
2017-07-30T10:22:38.796Z,29.66
2017-07-30T10:23:43.455Z,29.64
2017-07-30T10:24:48.092Z,29.74
2017-07-30T10:25:52.771Z,29.82
2017-07-30T10:26:57.416Z,29.78
2017-07-30T10:28:02.041Z,29.86
2017-07-30T10:29:06.690Z,29.97
2017-07-30T10:30:11.330Z,30.04
2017-07-30T10:31:16.013Z,30.22
2017-07-30T10:32:20.647Z,30.35
2017-07-30T10:33:25.276Z,30.40
2017-07-30T10:34:29.912Z,30.46
2017-07-30T10:35:34.556Z,30.56
2017-07-30T10:36:39.321Z,30.49
2017-07-30T10:37:43.953Z,30.51
2017-07-30T10:38:48.638Z,30.40
2017-07-30T10:39:53.283Z,30.17
2017-07-30T10:40:57.907Z,30.37
2017-07-30T10:42:02.602Z,30.56
2017-07-30T10:43:07.228Z,30.66
2017-07-30T10:44:11.875Z,30.70
2017-07-30T10:45:16.501Z,30.70
2017-07-30T10:46:21.163Z,30.76
2017-07-30T10:47:25.846Z,30.81
2017-07-30T10:48:30.482Z,30.88
2017-07-30T10:49:35.134Z,30.93
2017-07-30T10:50:39.842Z,30.90
2017-07-30T10:51:44.473Z,30.63
2017-07-30T10:52:49.236Z,30.42
2017-07-30T10:53:53.908Z,30.26
2017-07-30T10:54:58.538Z,30.28
2017-07-30T10:56:03.174Z,30.38
2017-07-30T10:57:07.818Z,30.47
2017-07-30T10:58:12.091Z,30.59
2017-07-30T10:59:16.735Z,30.66
2017-07-30T11:00:21.382Z,30.79
2017-07-30T11:01:26.031Z,30.87
2017-07-30T11:02:30.743Z,30.82
2017-07-30T11:03:35.430Z,30.92
2017-07-30T11:04:40.950Z,31.08
2017-07-30T11:05:46.433Z,31.19
2017-07-30T11:06:51.149Z,31.18
2017-07-30T11:07:55.821Z,31.26
2017-07-30T11:09:00.516Z,31.26
2017-07-30T11:10:05.150Z,31.34
2017-07-30T11:11:09.816Z,31.43
2017-07-30T11:12:14.442Z,31.46
2017-07-30T11:13:19.062Z,31.54
2017-07-30T11:14:23.733Z,31.58
2017-07-30T11:15:28.369Z,31.59
2017-07-30T11:16:32.997Z,31.57
2017-07-30T11:17:37.662Z,31.52
2017-07-30T11:18:42.285Z,31.53
2017-07-30T11:19:46.942Z,31.55
2017-07-30T11:20:51.568Z,31.62
2017-07-30T11:21:56.214Z,31.43
2017-07-30T11:23:00.875Z,31.31
2017-07-30T11:24:05.533Z,31.34
2017-07-30T11:25:10.178Z,31.36
2017-07-30T11:26:14.808Z,31.40
2017-07-30T11:27:19.441Z,31.43
2017-07-30T11:28:24.074Z,31.37
2017-07-30T11:29:28.734Z,31.41
2017-07-30T11:30:33.405Z,31.41
2017-07-30T11:31:38.043Z,31.55
2017-07-30T11:32:42.684Z,31.59
2017-07-30T11:33:47.326Z,31.57
2017-07-30T11:34:51.970Z,31.56
2017-07-30T11:35:56.639Z,31.65
2017-07-30T11:37:01.282Z,31.68
2017-07-30T11:38:05.923Z,31.70
2017-07-30T11:39:10.564Z,31.59
2017-07-30T11:40:15.197Z,31.45
2017-07-30T11:41:19.862Z,31.53
2017-07-30T11:42:24.501Z,31.62
2017-07-30T11:43:29.136Z,31.62
2017-07-30T11:44:33.767Z,31.65
2017-07-30T11:45:38.389Z,31.67
2017-07-30T11:46:46.055Z,31.71
2017-07-30T11:47:50.692Z,31.69
2017-07-30T11:48:55.326Z,31.59
2017-07-30T11:49:59.954Z,31.58
2017-07-30T11:51:04.599Z,31.67
2017-07-30T11:52:09.250Z,31.64
2017-07-30T11:53:13.871Z,31.75
2017-07-30T11:54:18.502Z,31.77
2017-07-30T11:55:23.152Z,31.75
2017-07-30T11:56:27.790Z,31.79
2017-07-30T11:57:32.445Z,31.76
2017-07-30T11:58:37.069Z,31.82
2017-07-30T11:59:41.694Z,31.87
2017-07-30T12:00:46.343Z,31.79
2017-07-30T12:01:50.965Z,31.75
2017-07-30T12:02:55.642Z,31.85
2017-07-30T12:04:00.270Z,31.91
2017-07-30T12:05:04.902Z,31.86
2017-07-30T12:06:09.539Z,31.79
2017-07-30T12:07:14.205Z,31.82
2017-07-30T12:08:18.503Z,31.84
2017-07-30T12:09:23.128Z,31.81
2017-07-30T12:10:27.754Z,31.77
2017-07-30T12:11:32.378Z,31.85
2017-07-30T12:12:37.017Z,31.88
2017-07-30T12:13:41.682Z,31.92
2017-07-30T12:14:46.316Z,31.93
2017-07-30T12:15:50.938Z,31.98
2017-07-30T12:16:55.573Z,31.90
2017-07-30T12:18:00.264Z,32.01
2017-07-30T12:19:04.928Z,31.86
2017-07-30T12:20:09.566Z,31.84
2017-07-30T12:21:14.193Z,31.88
2017-07-30T12:22:18.811Z,31.79
2017-07-30T12:23:23.431Z,31.70
2017-07-30T12:24:28.096Z,31.72
2017-07-30T12:25:32.731Z,31.67
2017-07-30T12:26:37.361Z,31.70
2017-07-30T12:27:41.986Z,31.73
2017-07-30T12:28:46.654Z,31.79
2017-07-30T12:29:51.324Z,31.85
2017-07-30T12:31:01.315Z,31.92
2017-07-30T12:32:05.945Z,31.94
2017-07-30T12:33:10.579Z,32.01
2017-07-30T12:34:15.222Z,32.04
2017-07-30T12:35:19.890Z,32.07
2017-07-30T12:36:24.522Z,32.10
2017-07-30T12:37:29.175Z,32.00
2017-07-30T12:38:33.801Z,32.08
2017-07-30T12:39:38.457Z,32.13
2017-07-30T12:40:43.205Z,32.09
2017-07-30T12:41:47.840Z,32.12
2017-07-30T12:42:52.468Z,32.15
2017-07-30T12:43:57.093Z,32.14
2017-07-30T12:45:01.738Z,32.14
2017-07-30T12:46:06.389Z,32.10
2017-07-30T12:47:11.035Z,32.15
2017-07-30T12:48:15.658Z,32.18
2017-07-30T12:49:20.290Z,32.22
2017-07-30T12:50:24.937Z,32.13
2017-07-30T12:51:29.585Z,32.15
2017-07-30T12:52:34.206Z,32.08
2017-07-30T12:53:38.829Z,32.06
2017-07-30T12:54:43.544Z,32.00
2017-07-30T12:55:48.180Z,31.86
2017-07-30T12:56:52.882Z,31.74
2017-07-30T12:57:57.505Z,31.70
2017-07-30T12:59:02.125Z,31.53
2017-07-30T13:00:06.745Z,31.45
2017-07-30T13:01:11.379Z,31.34
2017-07-30T13:02:16.034Z,31.22
2017-07-30T13:03:20.678Z,31.26
2017-07-30T13:04:25.316Z,31.20
2017-07-30T13:05:29.966Z,31.18
2017-07-30T13:06:34.594Z,31.20
2017-07-30T13:07:39.277Z,31.19
2017-07-30T13:08:43.980Z,31.19
2017-07-30T13:09:48.621Z,31.14
2017-07-30T13:10:53.263Z,31.15
2017-07-30T13:11:57.909Z,31.14
2017-07-30T13:13:02.569Z,31.11
2017-07-30T13:14:07.217Z,31.11
2017-07-30T13:15:11.874Z,31.10
2017-07-30T13:16:16.507Z,31.08
2017-07-30T13:17:21.137Z,31.05
2017-07-30T13:18:25.824Z,30.92
2017-07-30T13:19:30.461Z,30.95
2017-07-30T13:20:35.080Z,30.93
2017-07-30T13:21:39.717Z,30.98
2017-07-30T13:22:44.359Z,30.94
2017-07-30T13:23:49.048Z,30.92
2017-07-30T13:24:53.715Z,30.94
2017-07-30T13:25:58.346Z,30.97
2017-07-30T13:27:02.982Z,31.02
2017-07-30T13:28:07.651Z,31.08
2017-07-30T13:29:12.338Z,31.12
2017-07-30T13:30:16.966Z,31.09
2017-07-30T13:31:21.614Z,31.11
2017-07-30T13:32:26.245Z,31.14
2017-07-30T13:33:30.884Z,31.11
2017-07-30T13:34:35.914Z,31.09
2017-07-30T13:35:40.547Z,31.03
2017-07-30T13:36:45.229Z,31.03
2017-07-30T13:37:49.885Z,31.14
2017-07-30T13:38:54.510Z,31.24
2017-07-30T13:39:59.179Z,31.30
2017-07-30T13:41:03.817Z,31.25
2017-07-30T13:42:08.446Z,31.34
2017-07-30T13:43:13.091Z,31.39
2017-07-30T13:44:17.745Z,31.47
2017-07-30T13:45:22.417Z,31.55
2017-07-30T13:46:27.039Z,31.54
2017-07-30T13:47:31.690Z,31.64
2017-07-30T13:48:36.321Z,31.73
2017-07-30T13:49:40.942Z,31.76
2017-07-30T13:50:45.587Z,31.87
2017-07-30T13:51:50.226Z,31.94
2017-07-30T13:52:54.862Z,31.95
2017-07-30T13:53:59.513Z,31.98
2017-07-30T13:55:04.141Z,31.85
2017-07-30T13:56:08.842Z,31.79